Time,TemperatureF,DewpointF,PressureIn,WindDirection,WindDirectionDegrees,WindSpeedMPH,WindSpeedGustMPH,Humidity,HourlyPrecipIn,Conditions,Clouds,dailyrainin,SolarRadiationWatts/m^2,SoftwareType,DateUTC
2013-07-02 00:11:00,79.0,46.0,-100.00,South,174,6.0,9.0,32,0.00,,,-99.99,0.000000,,2013-07-02 06:11:00,
2013-07-02 00:23:00,78.0,45.0,-100.00,SSE,155,6.0,8.0,31,0.00,,,-99.99,0.000000,,2013-07-02 06:23:00,
2013-07-02 00:43:00,80.0,45.0,-100.00,SSE,156,6.0,10.0,29,0.00,,,-99.99,0.000000,,2013-07-02 06:43:00,
2013-07-02 00:50:00,77.0,45.0,-100.00,South,181,6.0,8.0,33,0.00,,,-99.99,0.000000,,2013-07-02 06:50:00,
2013-07-02 00:53:00,79.0,44.0,-100.00,SSE,164,7.0,9.0,29,0.00,,,-99.99,0.000000,,2013-07-02 06:53:00,
2013-07-02 01:11:00,77.0,45.0,-100.00,South,181,6.0,8.0,33,0.00,,,-99.99,0.000000,,2013-07-02 07:11:00,
2013-07-02 01:22:00,77.0,45.0,-100.00,South,181,6.0,8.0,33,0.00,,,-99.99,0.000000,,2013-07-02 07:22:00,
2013-07-02 01:33:00,77.0,45.0,-100.00,South,181,6.0,8.0,33,0.00,,,-99.99,0.000000,,2013-07-02 07:33:00,
2013-07-02 01:44:00,77.0,45.0,-100.00,South,181,6.0,8.0,33,0.00,,,-99.99,0.000000,,2013-07-02 07:44:00,
2013-07-02 02:22:00,75.0,42.0,-100.00,SE,146,5.0,8.0,31,0.00,,,-99.99,0.000000,,2013-07-02 08:22:00,
2013-07-02 02:44:00,73.0,43.0,-100.00,SSE,163,5.0,7.0,34,0.00,,,-99.99,0.000000,,2013-07-02 08:44:00,
2013-07-02 02:53:00,75.0,42.0,-100.00,SSE,160,6.0,8.0,31,0.00,,,-99.99,0.000000,,2013-07-02 08:53:00,
2013-07-02 03:11:00,73.0,41.0,-100.00,SW,217,5.0,7.0,32,0.00,,,-99.99,0.000000,,2013-07-02 09:11:00,
2013-07-02 03:22:00,73.0,43.0,-100.00,SSE,168,4.0,6.0,34,0.00,,,-99.99,0.000000,,2013-07-02 09:22:00,
2013-07-02 04:01:00,69.0,48.0,-100.00,West,268,2.0,5.0,47,0.00,,,-99.99,0.000000,,2013-07-02 10:01:00,
2013-07-02 04:11:00,68.0,48.0,-100.00,SSW,193,4.0,6.0,49,0.00,,,-99.99,0.000000,,2013-07-02 10:11:00,
2013-07-02 04:22:00,69.0,43.0,-100.00,SSE,161,5.0,7.0,39,0.00,,,-99.99,0.000000,,2013-07-02 10:22:00,
2013-07-02 04:43:00,68.0,43.0,-100.00,WSW,242,3.0,7.0,40,0.00,,,-99.99,0.000000,,2013-07-02 10:43:00,
2013-07-02 04:52:00,68.0,45.0,-100.00,SE,145,5.0,6.0,43,0.00,,,-99.99,0.000000,,2013-07-02 10:52:00,
2013-07-02 05:22:00,70.0,44.0,-100.00,SE,127,2.0,4.0,39,0.00,,,-99.99,0.000000,,2013-07-02 11:22:00,
2013-07-02 05:33:00,68.0,42.0,-100.00,ESE,123,2.0,4.0,40,0.00,,,-99.99,0.000000,,2013-07-02 11:33:00,
2013-07-02 05:50:00,66.0,45.0,-100.00,WSW,249,3.0,6.0,46,0.00,,,-99.99,2.000000,,2013-07-02 11:50:00,
2013-07-02 05:52:00,66.0,43.0,-100.00,SSE,163,4.0,7.0,43,0.00,,,-99.99,0.000000,,2013-07-02 11:52:00,
2013-07-02 06:11:00,66.0,45.0,-100.00,WSW,249,3.0,6.0,46,0.00,,,-99.99,2.000000,,2013-07-02 12:11:00,
2013-07-02 06:23:00,66.0,45.0,-100.00,WSW,249,3.0,6.0,46,0.00,,,-99.99,2.000000,,2013-07-02 12:23:00,
2013-07-02 06:33:00,66.0,45.0,-100.00,WSW,249,3.0,6.0,46,0.00,,,-99.99,2.000000,,2013-07-02 12:33:00,
2013-07-02 06:43:00,66.0,45.0,-100.00,WSW,249,3.0,6.0,46,0.00,,,-99.99,2.000000,,2013-07-02 12:43:00,
2013-07-02 07:34:00,69.0,44.0,-100.00,SE,141,4.0,6.0,40,0.00,,,-99.99,152.000000,,2013-07-02 13:34:00,
2013-07-02 07:52:00,70.0,48.0,-100.00,SW,228,3.0,5.0,46,0.00,,,-99.99,78.000000,,2013-07-02 13:52:00,
2013-07-02 08:11:00,73.0,51.0,-100.00,South,188,2.0,4.0,46,0.00,,,-99.99,218.000000,,2013-07-02 14:11:00,
2013-07-02 08:43:00,76.0,53.0,-100.00,SSE,150,2.0,3.0,45,0.00,,,-99.99,362.000000,,2013-07-02 14:43:00,
2013-07-02 09:53:00,83.0,53.0,-100.00,SE,133,2.0,6.0,36,0.00,,,-99.99,542.000000,,2013-07-02 15:53:00,
2013-07-02 10:21:00,83.0,52.0,-100.00,WNW,298,3.0,5.0,35,0.00,,,-99.99,625.000000,,2013-07-02 16:21:00,
2013-07-02 10:33:00,83.0,52.0,-100.00,West,274,3.0,6.0,35,0.00,,,-99.99,649.000000,,2013-07-02 16:33:00,
2013-07-02 10:43:00,84.0,56.0,-100.00,West,267,3.0,4.0,38,0.00,,,-99.99,692.000000,,2013-07-02 16:43:00,
2013-07-02 10:50:00,85.0,55.0,-100.00,ENE,63,4.0,6.0,36,0.00,,,-99.99,778.000000,,2013-07-02 16:50:00,
2013-07-02 10:52:00,84.0,56.0,-100.00,West,267,3.0,4.0,38,0.00,,,-99.99,692.000000,,2013-07-02 16:52:00,
2013-07-02 11:02:00,84.0,53.0,-100.00,NE,51,4.0,6.0,34,0.00,,,-99.99,731.000000,,2013-07-02 17:02:00,
2013-07-02 11:11:00,85.0,50.0,-100.00,SW,221,3.0,5.0,30,0.00,,,-99.99,745.000000,,2013-07-02 17:11:00,
2013-07-02 11:22:00,85.0,55.0,-100.00,ENE,63,4.0,6.0,36,0.00,,,-99.99,778.000000,,2013-07-02 17:22:00,
2013-07-02 11:33:00,85.0,55.0,-100.00,ENE,63,4.0,6.0,36,0.00,,,-99.99,778.000000,,2013-07-02 17:33:00,
2013-07-02 11:43:00,85.0,55.0,-100.00,ENE,63,4.0,6.0,36,0.00,,,-99.99,778.000000,,2013-07-02 17:43:00,
2013-07-02 12:43:00,88.0,55.0,-100.00,SSW,210,2.0,6.0,33,0.00,,,-99.99,929.000000,,2013-07-02 18:43:00,
2013-07-02 13:22:00,89.0,53.0,-100.00,WSW,237,3.0,5.0,29,0.00,,,-99.99,963.000000,,2013-07-02 19:22:00,
2013-07-02 13:43:00,90.0,51.0,-100.00,WSW,254,3.0,6.0,27,0.00,,,-99.99,687.000000,,2013-07-02 19:43:00,
2013-07-02 13:53:00,90.0,51.0,-100.00,WSW,254,3.0,6.0,27,0.00,,,-99.99,687.000000,,2013-07-02 19:53:00,
2013-07-02 14:11:00,90.0,48.0,-100.00,SSE,151,5.0,7.0,24,0.00,,,-99.99,951.000000,,2013-07-02 20:11:00,
2013-07-02 14:22:00,90.0,48.0,-100.00,SSE,151,5.0,7.0,24,0.00,,,-99.99,951.000000,,2013-07-02 20:22:00,
2013-07-02 14:43:00,91.0,54.0,-100.00,South,178,5.0,7.0,29,0.00,,,-99.99,944.000000,,2013-07-02 20:43:00,
2013-07-02 15:33:00,92.0,49.0,-100.00,SE,130,5.0,7.0,23,0.00,,,-99.99,893.000000,,2013-07-02 21:33:00,
2013-07-02 15:43:00,92.0,52.0,-100.00,SSW,207,4.0,6.0,26,0.00,,,-99.99,879.000000,,2013-07-02 21:43:00,
2013-07-02 15:50:00,94.0,51.0,-100.00,WSW,237,2.0,6.0,24,0.00,,,-99.99,810.000000,,2013-07-02 21:50:00,
2013-07-02 15:52:00,93.0,53.0,-100.00,ESE,110,3.0,5.0,26,0.00,,,-99.99,856.000000,,2013-07-02 21:52:00,
2013-07-02 16:11:00,93.0,51.0,-100.00,SSW,202,3.0,5.0,24,0.00,,,-99.99,833.000000,,2013-07-02 22:11:00,
2013-07-02 16:22:00,94.0,51.0,-100.00,WSW,237,2.0,6.0,24,0.00,,,-99.99,810.000000,,2013-07-02 22:22:00,
2013-07-02 16:33:00,94.0,51.0,-100.00,WSW,237,2.0,6.0,24,0.00,,,-99.99,810.000000,,2013-07-02 22:33:00,
2013-07-02 16:43:00,94.0,51.0,-100.00,WSW,237,2.0,6.0,24,0.00,,,-99.99,810.000000,,2013-07-02 22:43:00,
2013-07-02 17:22:00,94.0,53.0,-100.00,SE,134,3.0,5.0,25,0.00,,,-99.99,634.000000,,2013-07-02 23:22:00,
2013-07-02 17:44:00,93.0,54.0,-100.00,SW,217,5.0,6.0,27,0.00,,,-99.99,575.000000,,2013-07-02 23:44:00,
2013-07-02 17:52:00,93.0,51.0,-100.00,SSW,195,4.0,6.0,24,0.00,,,-99.99,546.000000,,2013-07-02 23:52:00,
2013-07-02 18:11:00,93.0,55.0,-100.00,SSE,153,4.0,6.0,28,0.00,,,-99.99,515.000000,,2013-07-03 00:11:00,
2013-07-02 18:52:00,92.0,57.0,-100.00,SSW,213,3.0,7.0,31,0.00,,,-99.99,402.000000,,2013-07-03 00:52:00,
2013-07-02 19:11:00,90.0,55.0,-100.00,WNW,291,5.0,10.0,30,0.00,,,-99.99,341.000000,,2013-07-03 01:11:00,
2013-07-02 19:42:00,90.0,54.0,-100.00,SSW,203,1.0,4.0,30,0.00,,,-99.99,218.000000,,2013-07-03 01:42:00,
2013-07-02 20:12:00,84.0,55.0,-100.00,South,180,3.0,5.0,37,0.00,,,-99.99,56.000000,,2013-07-03 02:12:00,
2013-07-02 20:23:00,83.0,54.0,-100.00,SSE,155,3.0,7.0,37,0.00,,,-99.99,50.000000,,2013-07-03 02:23:00,
2013-07-02 20:43:00,82.0,52.0,-100.00,SSW,203,5.0,8.0,35,0.00,,,-99.99,37.000000,,2013-07-03 02:43:00,
2013-07-02 20:50:00,85.0,50.0,-100.00,SSE,161,6.0,9.0,30,0.00,,,-99.99,8.000000,,2013-07-03 02:50:00,
2013-07-02 20:53:00,85.0,47.0,-100.00,South,171,4.0,9.0,27,0.00,,,-99.99,33.000000,,2013-07-03 02:53:00,
2013-07-02 21:12:00,85.0,50.0,-100.00,SSE,161,6.0,9.0,30,0.00,,,-99.99,8.000000,,2013-07-03 03:12:00,
2013-07-02 21:24:00,85.0,50.0,-100.00,SSE,161,6.0,9.0,30,0.00,,,-99.99,8.000000,,2013-07-03 03:24:00,
2013-07-02 21:34:00,85.0,50.0,-100.00,SSE,161,6.0,9.0,30,0.00,,,-99.99,8.000000,,2013-07-03 03:34:00,
2013-07-02 21:43:00,85.0,50.0,-100.00,SSE,161,6.0,9.0,30,0.00,,,-99.99,8.000000,,2013-07-03 03:43:00,
2013-07-02 22:34:00,76.0,49.0,-100.00,South,176,5.0,7.0,39,0.00,,,-99.99,0.000000,,2013-07-03 04:34:00,
2013-07-02 22:52:00,77.0,48.0,-100.00,South,171,6.0,7.0,36,0.00,,,-99.99,0.000000,,2013-07-03 04:52:00,
2013-07-02 23:11:00,76.0,47.0,-100.00,SSE,159,6.0,9.0,35,0.00,,,-99.99,0.000000,,2013-07-03 05:11:00,
2013-07-02 23:23:00,77.0,46.0,-100.00,SSE,166,7.0,10.0,33,0.00,,,-99.99,0.000000,,2013-07-03 05:23:00,
2013-07-02 23:43:00,76.0,46.0,-100.00,South,169,5.0,7.0,34,0.00,,,-99.99,0.000000,,2013-07-03 05:43:00,
2013-07-02 23:53:00,76.0,46.0,-100.00,South,169,5.0,7.0,34,0.00,,,-99.99,0.000000,,2013-07-03 05:53:00,